Nomad — 8PPY — position and weather

sailwx.info

Track history (hours):
 
Tides and Currents Weather Stations Pressure Air Temp Water Temp Dewpoint Dewpoint Depression Visibility Wind Speed Wind Dir Waves Ship Positions

Nomad

Last reported at 2018-Apr-01 18:10 UTC. Time now 2018-Apr-23 13:43 UTC.
Position N 04°52' E 000°05'.
Warning: this ship's position is 21 days out of date.

Length 190 m; draft 7.1 m.

Type: Cargo ship. MMSI: 314148000.

Date/timePositionNaut miles runAvg speedWind from/ knotsBaromVisibWave heightAir tempDewpointWater temp
2018-Apr-01 18:10N 04°52' E 000°05'213.1
2018-Apr-01 18:00N 04°53' E 000°07'613.0
2018-Apr-01 17:30N 04°57' E 000°12'713.0
2018-Apr-01 17:00N 05°01' E 000°17'713.2
2018-Apr-01 16:30N 05°05' E 000°22'713.2
2018-Apr-01 16:00N 05°09' E 000°28'713.3
2018-Apr-01 15:30N 05°13' E 000°33'613.2
2018-Apr-01 15:00N 05°17' E 000°38'713.2
2018-Apr-01 14:30N 05°21' E 000°43'713.1
2018-Apr-01 13:59N 05°25' E 000°48'613.0
2018-Apr-01 13:30N 05°29' E 000°53'612.9
2018-Apr-01 13:00N 05°33' E 000°59'612.5
2018-Apr-01 12:30N 05°38' E 001°03'1610.5
2018-Apr-01 10:57N 05°50' E 001°14'19 0.6
2018-Mar-31 04:21N 06°08' E 001°17'  
2018-Mar-26 08:51N 06°08' E 001°17'0 0.0
2018-Mar-26 08:30N 06°08' E 001°17'0 0.0
2018-Mar-26 08:00N 06°08' E 001°17'0 0.0
2018-Mar-26 07:18N 06°08' E 001°17'0 0.0
2018-Mar-26 06:57N 06°08' E 001°17'0 0.0
2018-Mar-26 06:30N 06°08' E 001°17'0 0.0
2018-Mar-26 06:00N 06°08' E 001°17'0 0.0
2018-Mar-26 05:30N 06°08' E 001°17'0 0.0
2018-Mar-26 05:00N 06°08' E 001°17'0 0.0
2018-Mar-26 04:30N 06°08' E 001°17'0 0.0
2018-Mar-26 04:00N 06°08' E 001°17'0 0.0
2018-Mar-26 03:30N 06°08' E 001°17'0 0.0
2018-Mar-26 03:00N 06°08' E 001°17'0 0.0
2018-Mar-26 02:30N 06°08' E 001°17'0 0.0
2018-Mar-26 01:48N 06°08' E 001°17'0 0.0
2018-Mar-26 01:30N 06°08' E 001°17'0 0.0
2018-Mar-26 01:00N 06°08' E 001°17'0 0.0
2018-Mar-25 23:51N 06°08' E 001°17'0 0.0
2018-Mar-25 23:30N 06°08' E 001°17'0 0.0
2018-Mar-25 23:00N 06°08' E 001°17'0 0.0
2018-Mar-25 22:30N 06°08' E 001°17'0 0.0
2018-Mar-25 21:58N 06°08' E 001°17'0 0.5
2018-Mar-25 21:28N 06°08' E 001°17'2 3.8
2018-Mar-25 21:00N 06°07' E 001°19'0 0.6
2018-Mar-25 20:30N 06°07' E 001°19'3 7.1
2018-Mar-25 20:00N 06°04' E 001°19'1 1.6
2018-Mar-25 19:30N 06°04' E 001°18'2 0.1
2018-Mar-25 08:12N 06°04' E 001°20'1 1.1
2018-Mar-25 07:41N 06°04' E 001°19'4 7.1
2018-Mar-25 07:04N 06°01' E 001°16'0 1.4
2018-Mar-25 07:00N 06°01' E 001°16'0 0.0
2018-Mar-25 04:53N 06°01' E 001°16'0 0.0
2018-Mar-25 01:29N 06°01' E 001°16'0 0.0
2018-Mar-24 22:26N 06°01' E 001°16'0 0.0
2018-Mar-24 21:56N 06°01' E 001°16'0 0.0
2018-Mar-24 09:44N 06°01' E 001°16'0 0.0
2018-Mar-24 09:29N 06°01' E 001°16'0 0.0
2018-Mar-24 08:56N 06°01' E 001°16'0 0.0
2018-Mar-23 18:10N 06°01' E 001°16'0 0.0
2018-Mar-23 17:46N 06°01' E 001°16'0 0.0
2018-Mar-23 17:16N 06°01' E 001°16'0 0.0
2018-Mar-23 16:58N 06°01' E 001°16'0 0.0
2018-Mar-23 16:22N 06°01' E 001°16'0 0.0
2018-Mar-23 15:58N 06°01' E 001°16'0 0.0
2018-Mar-23 15:28N 06°01' E 001°16'0 0.0
2018-Mar-23 00:34N 06°01' E 001°16'0 0.0
2018-Mar-23 00:22N 06°01' E 001°16'0 0.0
2018-Mar-22 23:52N 06°01' E 001°16'0 0.0
2018-Mar-22 18:37N 06°01' E 001°16'  
Track history (hours):
 
Tides and Currents Weather Stations Pressure Air Temp Water Temp Dewpoint Dewpoint Depression Visibility Wind Speed Wind Dir Waves Ship Positions

Nomad

Last reported at 2018-Apr-01 18:10 UTC. Time now 2018-Apr-23 13:43 UTC.
Position N 04°52' E 000°05'.
Warning: this ship's position is 21 days out of date.

Length 190 m; draft 7.1 m.

Type: Cargo ship. MMSI: 314148000.

Date/timePositionNaut miles runAvg speedWind from/ knotsBaromVisibWave heightAir tempDewpointWater temp
2018-Apr-01 18:10N 04°52' E 000°05'213.1
2018-Apr-01 18:00N 04°53' E 000°07'613.0
2018-Apr-01 17:30N 04°57' E 000°12'713.0
2018-Apr-01 17:00N 05°01' E 000°17'713.2
2018-Apr-01 16:30N 05°05' E 000°22'713.2
2018-Apr-01 16:00N 05°09' E 000°28'713.3
2018-Apr-01 15:30N 05°13' E 000°33'613.2
2018-Apr-01 15:00N 05°17' E 000°38'713.2
2018-Apr-01 14:30N 05°21' E 000°43'713.1
2018-Apr-01 13:59N 05°25' E 000°48'613.0
2018-Apr-01 13:30N 05°29' E 000°53'612.9
2018-Apr-01 13:00N 05°33' E 000°59'612.5
2018-Apr-01 12:30N 05°38' E 001°03'1610.5
2018-Apr-01 10:57N 05°50' E 001°14'19 0.6
2018-Mar-31 04:21N 06°08' E 001°17'  
2018-Mar-26 08:51N 06°08' E 001°17'0 0.0
2018-Mar-26 08:30N 06°08' E 001°17'0 0.0
2018-Mar-26 08:00N 06°08' E 001°17'0 0.0
2018-Mar-26 07:18N 06°08' E 001°17'0 0.0
2018-Mar-26 06:57N 06°08' E 001°17'0 0.0
2018-Mar-26 06:30N 06°08' E 001°17'0 0.0
2018-Mar-26 06:00N 06°08' E 001°17'0 0.0
2018-Mar-26 05:30N 06°08' E 001°17'0 0.0
2018-Mar-26 05:00N 06°08' E 001°17'0 0.0
2018-Mar-26 04:30N 06°08' E 001°17'0 0.0
2018-Mar-26 04:00N 06°08' E 001°17'0 0.0
2018-Mar-26 03:30N 06°08' E 001°17'0 0.0
2018-Mar-26 03:00N 06°08' E 001°17'0 0.0
2018-Mar-26 02:30N 06°08' E 001°17'0 0.0
2018-Mar-26 01:48N 06°08' E 001°17'0 0.0
2018-Mar-26 01:30N 06°08' E 001°17'0 0.0
2018-Mar-26 01:00N 06°08' E 001°17'0 0.0
2018-Mar-25 23:51N 06°08' E 001°17'0 0.0
2018-Mar-25 23:30N 06°08' E 001°17'0 0.0
2018-Mar-25 23:00N 06°08' E 001°17'0 0.0
2018-Mar-25 22:30N 06°08' E 001°17'0 0.0
2018-Mar-25 21:58N 06°08' E 001°17'0 0.5
2018-Mar-25 21:28N 06°08' E 001°17'2 3.8
2018-Mar-25 21:00N 06°07' E 001°19'0 0.6
2018-Mar-25 20:30N 06°07' E 001°19'3 7.1
2018-Mar-25 20:00N 06°04' E 001°19'1 1.6
2018-Mar-25 19:30N 06°04' E 001°18'2 0.1
2018-Mar-25 08:12N 06°04' E 001°20'1 1.1
2018-Mar-25 07:41N 06°04' E 001°19'4 7.1
2018-Mar-25 07:04N 06°01' E 001°16'0 1.4
2018-Mar-25 07:00N 06°01' E 001°16'0 0.0
2018-Mar-25 04:53N 06°01' E 001°16'0 0.0
2018-Mar-25 01:29N 06°01' E 001°16'0 0.0
2018-Mar-24 22:26N 06°01' E 001°16'0 0.0
2018-Mar-24 21:56N 06°01' E 001°16'0 0.0
2018-Mar-24 09:44N 06°01' E 001°16'0 0.0
2018-Mar-24 09:29N 06°01' E 001°16'0 0.0
2018-Mar-24 08:56N 06°01' E 001°16'0 0.0
2018-Mar-23 18:10N 06°01' E 001°16'0 0.0
2018-Mar-23 17:46N 06°01' E 001°16'0 0.0
2018-Mar-23 17:16N 06°01' E 001°16'0 0.0
2018-Mar-23 16:58N 06°01' E 001°16'0 0.0
2018-Mar-23 16:22N 06°01' E 001°16'0 0.0
2018-Mar-23 15:58N 06°01' E 001°16'0 0.0
2018-Mar-23 15:28N 06°01' E 001°16'0 0.0
2018-Mar-23 00:34N 06°01' E 001°16'0 0.0
2018-Mar-23 00:22N 06°01' E 001°16'0 0.0
2018-Mar-22 23:52N 06°01' E 001°16'0 0.0
2018-Mar-22 18:37N 06°01' E 001°16'  

Dump ship's entire track history